createdAt,value
2023-02-06T00:01:35.773Z,-7.90
2023-02-06T00:04:05.625Z,-7.90
2023-02-06T00:06:33.739Z,-7.90
2023-02-06T00:09:01.919Z,-7.90
2023-02-06T00:11:30.250Z,-8.00
2023-02-06T00:13:58.454Z,-8.00
2023-02-06T00:16:28.171Z,-8.00
2023-02-06T00:18:57.659Z,-8.00
2023-02-06T00:21:28.822Z,-8.00
2023-02-06T00:23:59.083Z,-8.00
2023-02-06T00:26:27.843Z,-8.00
2023-02-06T00:28:56.015Z,-8.10
2023-02-06T00:31:24.221Z,-8.10
2023-02-06T00:33:52.342Z,-8.10
2023-02-06T00:36:20.408Z,-8.10
2023-02-06T00:38:49.938Z,-8.10
2023-02-06T00:41:18.000Z,-8.10
2023-02-06T00:43:46.050Z,-8.10
2023-02-06T00:46:14.220Z,-8.20
2023-02-06T00:48:42.984Z,-8.20
2023-02-06T00:51:11.086Z,-8.20
2023-02-06T00:53:39.884Z,-8.20
2023-02-06T00:56:09.419Z,-8.20
2023-02-06T00:58:37.565Z,-8.20
2023-02-06T01:01:05.746Z,-8.20
2023-02-06T01:03:34.329Z,-8.20
2023-02-06T01:06:03.047Z,-8.20
2023-02-06T01:08:31.148Z,-8.20
2023-02-06T01:10:59.186Z,-8.30
2023-02-06T01:13:28.680Z,-8.30
2023-02-06T01:15:57.928Z,-8.40
2023-02-06T01:18:25.994Z,-8.40
2023-02-06T01:20:54.064Z,-8.40
2023-02-06T01:23:22.143Z,-8.50
2023-02-06T01:25:51.167Z,-8.50
2023-02-06T01:28:19.227Z,-8.50
2023-02-06T01:30:48.650Z,-8.50
2023-02-06T01:33:16.703Z,-8.50
2023-02-06T01:35:44.783Z,-8.50
2023-02-06T01:38:13.063Z,-8.60
2023-02-06T01:40:41.109Z,-8.60
2023-02-06T01:43:18.086Z,-8.50
2023-02-06T01:45:48.486Z,-8.60
2023-02-06T01:48:20.309Z,-8.60
2023-02-06T01:50:54.235Z,-8.50
2023-02-06T01:53:23.529Z,-8.60
2023-02-06T01:55:53.752Z,-8.60
2023-02-06T01:58:29.088Z,-8.60
2023-02-06T02:01:00.033Z,-8.60
2023-02-06T02:03:29.765Z,-8.70
2023-02-06T02:06:01.711Z,-8.70
2023-02-06T02:08:36.555Z,-8.70
2023-02-06T02:11:07.257Z,-8.70
2023-02-06T02:13:36.557Z,-8.80
2023-02-06T02:16:08.399Z,-8.80
2023-02-06T02:18:56.178Z,-8.80
2023-02-06T02:22:00.879Z,-8.90
2023-02-06T02:24:54.664Z,-8.90
2023-02-06T02:28:05.968Z,-8.90
2023-02-06T02:31:02.240Z,-8.80
2023-02-06T02:33:57.573Z,-8.80
2023-02-06T02:36:35.338Z,-8.70
2023-02-06T02:39:13.092Z,-8.80
2023-02-06T02:41:49.127Z,-8.80
2023-02-06T02:44:27.081Z,-8.90
2023-02-06T02:46:57.703Z,-8.90
2023-02-06T02:49:29.475Z,-8.90
2023-02-06T02:52:00.335Z,-8.90
2023-02-06T02:54:28.651Z,-8.90
2023-02-06T02:56:59.717Z,-8.90
2023-02-06T02:59:31.982Z,-8.90
2023-02-06T03:02:03.580Z,-9.00
2023-02-06T03:04:36.055Z,-9.00
2023-02-06T03:07:16.054Z,-9.00
2023-02-06T03:09:51.864Z,-9.00
2023-02-06T03:12:24.662Z,-9.10
2023-02-06T03:14:59.161Z,-9.10
2023-02-06T03:17:34.346Z,-9.20
2023-02-06T03:20:05.357Z,-9.20
2023-02-06T03:22:36.814Z,-9.20
2023-02-06T03:25:08.887Z,-9.20
2023-02-06T03:27:40.089Z,-9.30
2023-02-06T03:30:12.645Z,-9.30
2023-02-06T03:32:46.405Z,-9.30
2023-02-06T03:35:19.332Z,-9.30
2023-02-06T03:37:50.142Z,-9.30
2023-02-06T03:40:19.193Z,-9.30
2023-02-06T03:42:51.482Z,-9.30
2023-02-06T03:45:24.229Z,-9.20
2023-02-06T03:47:54.994Z,-9.30
2023-02-06T03:50:24.596Z,-9.30
2023-02-06T03:52:57.089Z,-9.30
2023-02-06T03:55:26.217Z,-9.30
2023-02-06T03:57:56.015Z,-9.30
2023-02-06T04:00:25.428Z,-9.20
2023-02-06T04:02:56.475Z,-9.20
2023-02-06T04:05:25.135Z,-9.20
2023-02-06T04:07:56.662Z,-9.20
2023-02-06T04:10:26.428Z,-9.20
2023-02-06T04:12:54.813Z,-9.20
2023-02-06T04:15:23.415Z,-9.20
2023-02-06T04:18:00.032Z,-9.20
2023-02-06T04:20:29.436Z,-9.20
2023-02-06T04:22:59.624Z,-9.10
2023-02-06T04:25:27.854Z,-9.10
2023-02-06T04:27:56.028Z,-9.10
2023-02-06T04:30:24.154Z,-9.10
2023-02-06T04:32:52.290Z,-9.10
2023-02-06T04:35:20.838Z,-9.00
2023-02-06T04:37:48.878Z,-9.00
2023-02-06T04:40:18.792Z,-9.00
2023-02-06T04:42:47.052Z,-9.00
2023-02-06T04:45:15.430Z,-9.00
2023-02-06T04:47:43.537Z,-9.00
2023-02-06T04:50:11.853Z,-9.00
2023-02-06T04:52:39.888Z,-9.10
2023-02-06T04:55:08.724Z,-9.10
2023-02-06T04:57:38.390Z,-9.10
2023-02-06T05:00:07.589Z,-9.20
2023-02-06T05:02:39.529Z,-9.20
2023-02-06T05:05:09.640Z,-9.20
2023-02-06T05:07:37.708Z,-9.20
2023-02-06T05:10:06.498Z,-9.30
2023-02-06T05:12:34.578Z,-9.30
2023-02-06T05:15:04.337Z,-9.20
2023-02-06T05:17:33.078Z,-9.20
2023-02-06T05:20:01.268Z,-9.20
2023-02-06T05:22:29.351Z,-9.30
2023-02-06T05:24:57.424Z,-9.30
2023-02-06T05:27:25.706Z,-9.40
2023-02-06T05:29:53.787Z,-9.40
2023-02-06T05:32:23.176Z,-9.40
2023-02-06T05:34:51.206Z,-9.40
2023-02-06T05:37:19.265Z,-9.40
2023-02-06T05:39:47.267Z,-9.50
2023-02-06T05:42:15.365Z,-9.50
2023-02-06T05:44:43.404Z,-9.50
2023-02-06T05:47:11.500Z,-9.50
2023-02-06T05:49:40.946Z,-9.50
2023-02-06T05:52:09.015Z,-9.50
2023-02-06T05:54:37.098Z,-9.50
2023-02-06T05:57:05.288Z,-9.50
2023-02-06T05:59:33.428Z,-9.40
2023-02-06T06:02:01.678Z,-9.40
2023-02-06T06:04:29.834Z,-9.40
2023-02-06T06:06:59.292Z,-9.30
2023-02-06T06:09:27.603Z,-9.30
2023-02-06T06:11:55.680Z,-9.20
2023-02-06T06:14:23.725Z,-9.10
2023-02-06T06:16:52.654Z,-9.10
2023-02-06T06:19:20.903Z,-9.00
2023-02-06T06:21:48.964Z,-9.00
2023-02-06T06:24:18.384Z,-9.00
2023-02-06T06:26:46.476Z,-8.90
2023-02-06T06:29:14.542Z,-8.90
2023-02-06T06:31:42.637Z,-8.90
2023-02-06T06:34:10.754Z,-8.80
2023-02-06T06:36:38.816Z,-8.80
2023-02-06T06:39:06.882Z,-8.80
2023-02-06T06:41:36.314Z,-8.80
2023-02-06T06:44:04.620Z,-8.70
2023-02-06T06:46:32.693Z,-8.70
2023-02-06T06:49:01.427Z,-8.70
2023-02-06T06:51:30.138Z,-8.70
2023-02-06T06:53:58.394Z,-8.60
2023-02-06T06:56:26.916Z,-8.60
2023-02-06T06:58:56.483Z,-8.50
2023-02-06T07:01:24.826Z,-8.50
2023-02-06T07:03:52.932Z,-8.40
2023-02-06T07:06:21.017Z,-8.40
2023-02-06T07:08:49.076Z,-8.30
2023-02-06T07:11:18.507Z,-8.20
2023-02-06T07:13:46.710Z,-8.10
2023-02-06T07:16:16.160Z,-8.10
2023-02-06T07:18:44.256Z,-8.00
2023-02-06T07:21:14.153Z,-7.90
2023-02-06T07:23:42.479Z,-7.90
2023-02-06T07:26:10.578Z,-7.80
2023-02-06T07:28:38.801Z,-7.70
2023-02-06T07:31:08.455Z,-7.60
2023-02-06T07:33:37.881Z,-7.40
2023-02-06T07:36:06.311Z,-7.30
2023-02-06T07:38:34.349Z,-7.20
2023-02-06T07:41:03.382Z,-7.20
2023-02-06T07:43:32.025Z,-7.00
2023-02-06T07:46:01.449Z,-6.90
2023-02-06T07:48:30.277Z,-6.80
2023-02-06T07:51:06.278Z,-6.60
2023-02-06T07:53:34.891Z,-6.50
2023-02-06T07:56:02.978Z,-6.30
2023-02-06T07:58:31.027Z,-6.20
2023-02-06T08:01:00.658Z,-6.10
2023-02-06T08:03:28.795Z,-5.90
2023-02-06T08:05:56.893Z,-5.90
2023-02-06T08:08:26.802Z,-5.80
2023-02-06T08:10:54.885Z,-5.70
2023-02-06T08:13:23.046Z,-5.50
2023-02-06T08:15:51.157Z,-5.40
2023-02-06T08:18:19.245Z,-5.30
2023-02-06T08:20:47.304Z,-5.20
2023-02-06T08:23:15.371Z,-5.10
2023-02-06T08:25:44.804Z,-5.00
2023-02-06T08:28:14.965Z,-4.80
2023-02-06T08:30:43.210Z,-4.70
2023-02-06T08:33:11.339Z,-4.60
2023-02-06T08:35:39.402Z,-4.50
2023-02-06T08:38:07.461Z,-4.40
2023-02-06T08:40:36.068Z,-4.30
2023-02-06T08:43:05.508Z,-4.30
2023-02-06T08:45:33.945Z,-4.20
2023-02-06T08:48:02.118Z,-4.10
2023-02-06T08:50:30.180Z,-4.00
2023-02-06T08:52:59.140Z,-3.90
2023-02-06T08:55:27.222Z,-3.70
2023-02-06T08:57:55.308Z,-3.60
2023-02-06T09:00:24.979Z,-3.50
2023-02-06T09:02:53.684Z,-3.40
2023-02-06T09:05:22.297Z,-3.30
2023-02-06T09:07:50.669Z,-3.20
2023-02-06T09:10:30.354Z,-3.10
2023-02-06T09:12:58.440Z,-3.00
2023-02-06T09:15:27.930Z,-2.90
2023-02-06T09:17:55.803Z,-2.70
2023-02-06T09:20:26.518Z,-2.70
2023-02-06T09:22:54.812Z,-2.60
2023-02-06T09:25:22.868Z,-2.40
2023-02-06T09:27:50.905Z,-2.40
2023-02-06T09:30:19.127Z,-2.30
2023-02-06T09:32:48.589Z,-2.20
2023-02-06T09:35:16.535Z,-2.10
2023-02-06T09:37:44.612Z,-2.10
2023-02-06T09:40:15.357Z,-2.00
2023-02-06T09:42:43.750Z,-1.90
2023-02-06T09:45:17.792Z,-1.70
2023-02-06T09:47:51.040Z,-1.60
2023-02-06T09:50:25.525Z,-1.40
2023-02-06T09:53:09.919Z,-1.30
2023-02-06T09:55:41.508Z,-1.20
2023-02-06T09:58:22.751Z,-1.10
2023-02-06T10:00:54.451Z,-1.10
2023-02-06T10:03:43.916Z,-1.00
2023-02-06T10:06:19.155Z,-0.90
2023-02-06T10:08:54.469Z,-0.80
2023-02-06T10:11:33.836Z,-0.70
2023-02-06T10:14:05.737Z,-0.70
2023-02-06T10:16:40.688Z,-0.60
2023-02-06T10:19:18.747Z,-0.50
2023-02-06T10:21:52.611Z,-0.40
2023-02-06T10:24:31.399Z,-0.30
2023-02-06T10:27:04.156Z,-0.30
2023-02-06T10:29:36.241Z,-0.20
2023-02-06T10:32:17.566Z,-0.20
2023-02-06T10:35:13.661Z,-0.10
2023-02-06T10:38:19.092Z,0.10
2023-02-06T10:40:52.842Z,0.20
2023-02-06T10:43:32.705Z,0.30
2023-02-06T10:46:08.813Z,0.30
2023-02-06T10:48:41.994Z,0.40
2023-02-06T10:51:19.543Z,0.50
2023-02-06T10:53:51.438Z,0.70
2023-02-06T10:56:24.637Z,0.80
2023-02-06T10:58:57.011Z,1.00
2023-02-06T11:01:27.303Z,1.20
2023-02-06T11:04:03.007Z,1.20
2023-02-06T11:06:33.863Z,1.20
2023-02-06T11:09:01.944Z,1.40
2023-02-06T11:11:31.767Z,1.50
2023-02-06T11:14:05.429Z,1.50
2023-02-06T11:16:37.464Z,1.50
2023-02-06T11:19:17.052Z,1.50
2023-02-06T11:21:50.969Z,1.50
2023-02-06T11:24:21.099Z,1.50
2023-02-06T11:26:52.637Z,1.50
2023-02-06T11:29:22.885Z,1.60
2023-02-06T11:31:54.415Z,1.70
2023-02-06T11:34:27.322Z,2.00
2023-02-06T11:36:59.221Z,2.10
2023-02-06T11:39:31.295Z,2.00
2023-02-06T11:42:02.004Z,1.90
2023-02-06T11:44:35.829Z,1.80
2023-02-06T11:47:22.701Z,1.70
2023-02-06T11:49:50.850Z,1.50
2023-02-06T11:52:32.680Z,1.40
2023-02-06T11:55:02.859Z,1.30
2023-02-06T11:57:33.644Z,1.30
2023-02-06T12:00:05.094Z,1.20
2023-02-06T12:02:35.561Z,1.20
2023-02-06T12:05:13.126Z,1.20
2023-02-06T12:07:47.127Z,1.30
2023-02-06T12:10:16.923Z,1.30
2023-02-06T12:12:49.587Z,1.40
2023-02-06T12:15:44.752Z,1.40
2023-02-06T12:18:15.279Z,1.40
2023-02-06T12:20:50.044Z,1.40
2023-02-06T12:23:25.649Z,1.40
2023-02-06T12:25:57.660Z,1.30
2023-02-06T12:28:29.894Z,1.40
2023-02-06T12:31:01.164Z,1.40
2023-02-06T12:33:36.151Z,1.40
2023-02-06T12:36:07.923Z,1.40
2023-02-06T12:38:44.284Z,1.30
2023-02-06T12:41:27.817Z,1.30
2023-02-06T12:44:00.588Z,1.30
2023-02-06T12:46:30.645Z,1.30
2023-02-06T12:49:05.460Z,1.30
2023-02-06T12:51:37.359Z,1.30
2023-02-06T12:54:15.656Z,1.30
2023-02-06T12:56:48.873Z,1.30
2023-02-06T12:59:57.220Z,1.20
2023-02-06T13:02:49.178Z,1.20
2023-02-06T13:05:24.000Z,1.30
2023-02-06T13:07:53.426Z,1.40
2023-02-06T13:10:27.161Z,1.40
2023-02-06T13:12:55.972Z,1.70
2023-02-06T13:15:26.149Z,1.90
2023-02-06T13:17:55.784Z,2.10
2023-02-06T13:20:26.641Z,2.60
2023-02-06T13:22:56.508Z,3.10
2023-02-06T13:25:55.873Z,4.00
2023-02-06T13:29:04.151Z,5.00
2023-02-06T13:31:34.561Z,6.30
2023-02-06T13:34:18.756Z,7.80
2023-02-06T13:36:53.141Z,9.10
2023-02-06T13:39:34.185Z,10.30
2023-02-06T13:42:33.969Z,11.20
2023-02-06T13:45:04.589Z,11.30
2023-02-06T13:47:53.966Z,11.30
2023-02-06T13:50:45.005Z,11.60
2023-02-06T13:53:39.877Z,11.00
2023-02-06T13:56:26.505Z,9.00
2023-02-06T13:59:00.496Z,9.60
2023-02-06T14:01:31.036Z,10.70
2023-02-06T14:04:00.622Z,11.50
2023-02-06T14:06:56.694Z,12.20
2023-02-06T14:09:43.906Z,12.20
2023-02-06T14:12:35.471Z,10.90
2023-02-06T14:15:16.610Z,9.20
2023-02-06T14:17:59.232Z,7.90
2023-02-06T14:20:38.796Z,6.60
2023-02-06T14:23:18.157Z,5.80
2023-02-06T14:26:03.542Z,6.60
2023-02-06T14:28:40.812Z,7.10
2023-02-06T14:31:19.254Z,7.40
2023-02-06T14:34:04.120Z,7.20
2023-02-06T14:36:50.848Z,7.30
2023-02-06T14:39:44.251Z,7.60
2023-02-06T14:42:17.597Z,7.30
2023-02-06T14:44:50.497Z,7.30
2023-02-06T14:47:24.041Z,7.30
2023-02-06T14:49:53.102Z,6.70
2023-02-06T14:52:24.091Z,5.80
2023-02-06T14:54:52.229Z,5.10
2023-02-06T14:57:26.021Z,4.80
2023-02-06T14:59:57.637Z,4.80
2023-02-06T15:02:30.867Z,4.60
2023-02-06T15:04:59.559Z,4.10
2023-02-06T15:07:31.724Z,3.70
2023-02-06T15:10:06.184Z,3.20
2023-02-06T15:12:35.304Z,2.70
2023-02-06T15:15:15.376Z,2.20
2023-02-06T15:17:45.145Z,1.80
2023-02-06T15:20:24.964Z,1.50
2023-02-06T15:22:55.284Z,1.20
2023-02-06T15:25:35.088Z,1.00
2023-02-06T15:28:05.850Z,0.70
2023-02-06T15:30:37.103Z,0.60
2023-02-06T15:33:10.805Z,0.40
2023-02-06T15:35:42.397Z,0.30
2023-02-06T15:38:15.373Z,0.00
2023-02-06T15:40:46.072Z,-0.10
2023-02-06T15:43:16.893Z,-0.30
2023-02-06T15:45:46.020Z,-0.40
2023-02-06T15:48:20.621Z,-0.50
2023-02-06T15:51:01.000Z,-0.60
2023-02-06T15:53:35.767Z,-0.80
2023-02-06T15:56:06.364Z,-0.90
2023-02-06T15:58:36.920Z,-1.00
2023-02-06T16:01:08.446Z,-1.10
2023-02-06T16:03:42.646Z,-1.30
2023-02-06T16:06:16.183Z,-1.40
2023-02-06T16:08:49.381Z,-1.50
2023-02-06T16:11:31.469Z,-1.60
2023-02-06T16:13:59.878Z,-1.70
2023-02-06T16:16:29.281Z,-1.90
2023-02-06T16:18:59.846Z,-2.00
2023-02-06T16:21:31.728Z,-2.10
2023-02-06T16:24:16.588Z,-2.20
2023-02-06T16:26:48.002Z,-2.30
2023-02-06T16:29:25.950Z,-2.50
2023-02-06T16:32:00.522Z,-2.60
2023-02-06T16:34:42.090Z,-2.60
2023-02-06T16:37:14.593Z,-2.70
2023-02-06T16:39:44.758Z,-2.80
2023-02-06T16:42:18.692Z,-2.90
2023-02-06T16:44:49.950Z,-3.00
2023-02-06T16:47:20.634Z,-3.10
2023-02-06T16:49:50.976Z,-3.20
2023-02-06T16:52:22.580Z,-3.30
2023-02-06T16:54:51.356Z,-3.40
2023-02-06T16:57:24.828Z,-3.50
2023-02-06T16:59:52.997Z,-3.60
2023-02-06T17:02:21.367Z,-3.70
2023-02-06T17:04:50.896Z,-3.70
2023-02-06T17:07:22.087Z,-3.80
2023-02-06T17:09:51.187Z,-3.80
2023-02-06T17:12:21.284Z,-3.90
2023-02-06T17:14:49.675Z,-4.00
2023-02-06T17:17:21.257Z,-4.00
2023-02-06T17:19:52.267Z,-4.00
2023-02-06T17:22:20.496Z,-4.10
2023-02-06T17:24:49.023Z,-4.10
2023-02-06T17:27:19.253Z,-4.20
2023-02-06T17:29:47.994Z,-4.10
2023-02-06T17:32:21.684Z,-4.10
2023-02-06T17:34:54.076Z,-4.10
2023-02-06T17:37:22.356Z,-4.10
2023-02-06T17:39:51.324Z,-4.20
2023-02-06T17:42:19.779Z,-4.20
2023-02-06T17:44:47.868Z,-4.40
2023-02-06T17:47:15.916Z,-4.40
2023-02-06T17:49:44.028Z,-4.50
2023-02-06T17:52:13.740Z,-4.60
2023-02-06T17:54:41.810Z,-4.60
2023-02-06T17:57:10.228Z,-4.60
2023-02-06T17:59:38.427Z,-4.70
2023-02-06T18:02:06.577Z,-4.70
2023-02-06T18:04:34.633Z,-4.80
2023-02-06T18:07:02.680Z,-4.80
2023-02-06T18:09:32.149Z,-4.90
2023-02-06T18:12:00.096Z,-5.00
2023-02-06T18:14:28.292Z,-5.10
2023-02-06T18:16:56.373Z,-5.20
2023-02-06T18:19:25.266Z,-5.30
2023-02-06T18:21:53.508Z,-5.40
2023-02-06T18:24:21.720Z,-5.40
2023-02-06T18:26:51.201Z,-5.50
2023-02-06T18:29:19.276Z,-5.50
2023-02-06T18:31:47.375Z,-5.60
2023-02-06T18:34:15.512Z,-5.70
2023-02-06T18:36:43.640Z,-5.70
2023-02-06T18:39:12.195Z,-5.70
2023-02-06T18:41:57.954Z,-5.80
2023-02-06T18:44:27.405Z,-5.80
2023-02-06T18:46:55.553Z,-5.90
2023-02-06T18:49:23.961Z,-6.00
2023-02-06T18:51:52.041Z,-6.00
2023-02-06T18:54:20.107Z,-6.10
2023-02-06T18:56:49.790Z,-6.10
2023-02-06T18:59:18.007Z,-6.10
2023-02-06T19:01:48.061Z,-6.10
2023-02-06T19:04:16.281Z,-6.00
2023-02-06T19:06:48.108Z,-6.00
2023-02-06T19:09:19.868Z,-6.10
2023-02-06T19:11:48.606Z,-6.20
2023-02-06T19:14:22.408Z,-6.30
2023-02-06T19:16:52.537Z,-6.40
2023-02-06T19:19:20.849Z,-6.40
2023-02-06T19:21:49.012Z,-6.50
2023-02-06T19:24:18.970Z,-6.60
2023-02-06T19:26:47.606Z,-6.60
2023-02-06T19:29:19.344Z,-6.70
2023-02-06T19:31:53.493Z,-6.60
2023-02-06T19:34:21.672Z,-6.70
2023-02-06T19:36:49.744Z,-6.50
2023-02-06T19:39:17.924Z,-6.40
2023-02-06T19:41:46.203Z,-6.40
2023-02-06T19:44:15.593Z,-6.40
2023-02-06T19:46:43.732Z,-6.50
2023-02-06T19:49:13.665Z,-6.60
2023-02-06T19:51:44.708Z,-6.70
2023-02-06T19:54:13.191Z,-6.80
2023-02-06T19:56:44.066Z,-6.80
2023-02-06T19:59:18.055Z,-6.90
2023-02-06T20:01:47.544Z,-6.90
2023-02-06T20:04:17.750Z,-6.90
2023-02-06T20:06:45.960Z,-6.90
2023-02-06T20:09:15.634Z,-7.00
2023-02-06T20:11:44.051Z,-7.10
2023-02-06T20:14:13.110Z,-7.20
2023-02-06T20:16:43.009Z,-7.20
2023-02-06T20:19:14.190Z,-7.30
2023-02-06T20:21:45.947Z,-7.40
2023-02-06T20:24:18.405Z,-7.50
2023-02-06T20:26:46.709Z,-7.50
2023-02-06T20:29:21.550Z,-7.50
2023-02-06T20:31:50.302Z,-7.50
2023-02-06T20:34:19.082Z,-7.40
2023-02-06T20:36:49.440Z,-7.40
2023-02-06T20:39:18.178Z,-7.40
2023-02-06T20:41:46.459Z,-7.40
2023-02-06T20:44:15.349Z,-7.50
2023-02-06T20:46:44.311Z,-7.50
2023-02-06T20:49:15.766Z,-7.60
2023-02-06T20:51:44.213Z,-7.60
2023-02-06T20:54:13.942Z,-7.60
2023-02-06T20:56:42.521Z,-7.70
2023-02-06T20:59:14.028Z,-7.70
2023-02-06T21:01:42.730Z,-7.70
2023-02-06T21:04:13.228Z,-7.80
2023-02-06T21:06:41.568Z,-7.80
2023-02-06T21:09:10.527Z,-7.90
2023-02-06T21:11:42.088Z,-7.90
2023-02-06T21:14:11.109Z,-8.00
2023-02-06T21:16:39.770Z,-8.00
2023-02-06T21:19:10.128Z,-8.00
2023-02-06T21:21:38.784Z,-8.00
2023-02-06T21:24:07.351Z,-8.00
2023-02-06T21:26:35.706Z,-8.00
2023-02-06T21:29:07.655Z,-8.00
2023-02-06T21:31:38.790Z,-8.10
2023-02-06T21:34:09.698Z,-8.10
2023-02-06T21:36:39.526Z,-8.10
2023-02-06T21:39:08.194Z,-8.10
2023-02-06T21:41:37.681Z,-8.10
2023-02-06T21:44:07.385Z,-8.10
2023-02-06T21:46:35.542Z,-8.20
2023-02-06T21:49:03.772Z,-8.20
2023-02-06T21:51:31.820Z,-8.20
2023-02-06T21:54:00.155Z,-8.20
2023-02-06T21:56:29.366Z,-8.20
2023-02-06T21:58:57.889Z,-8.20
2023-02-06T22:01:29.103Z,-8.10
2023-02-06T22:03:58.134Z,-8.20
2023-02-06T22:06:26.590Z,-8.20
2023-02-06T22:08:56.467Z,-8.20
2023-02-06T22:11:27.600Z,-8.30
2023-02-06T22:13:59.961Z,-8.30
2023-02-06T22:16:29.975Z,-8.40
2023-02-06T22:19:00.631Z,-8.40
2023-02-06T22:21:30.653Z,-8.40
2023-02-06T22:24:02.615Z,-8.40
2023-02-06T22:26:31.457Z,-8.50
2023-02-06T22:28:59.989Z,-8.50
2023-02-06T22:31:30.978Z,-8.60
2023-02-06T22:34:00.429Z,-8.70
2023-02-06T22:36:30.457Z,-8.70
2023-02-06T22:39:00.534Z,-8.80
2023-02-06T22:41:29.882Z,-8.80
2023-02-06T22:43:58.195Z,-8.80
2023-02-06T22:46:28.260Z,-8.80
2023-02-06T22:48:58.387Z,-8.80
2023-02-06T22:51:26.931Z,-8.80
2023-02-06T22:53:55.534Z,-8.80
2023-02-06T22:56:36.758Z,-8.70
2023-02-06T22:59:07.584Z,-8.70
2023-02-06T23:01:38.198Z,-8.70
2023-02-06T23:04:11.318Z,-8.80
2023-02-06T23:06:39.635Z,-8.80
2023-02-06T23:09:09.673Z,-8.90
2023-02-06T23:11:37.722Z,-8.90
2023-02-06T23:14:07.820Z,-9.00
2023-02-06T23:16:36.831Z,-9.00
2023-02-06T23:19:07.474Z,-9.10
2023-02-06T23:21:38.069Z,-9.10
2023-02-06T23:24:07.625Z,-9.10
2023-02-06T23:26:36.493Z,-9.20
2023-02-06T23:29:09.803Z,-9.10
2023-02-06T23:31:38.257Z,-9.10
2023-02-06T23:34:07.816Z,-9.10
2023-02-06T23:36:36.100Z,-9.10
2023-02-06T23:39:05.640Z,-9.20
2023-02-06T23:41:34.129Z,-9.10
2023-02-06T23:44:04.244Z,-9.10
2023-02-06T23:46:34.533Z,-9.10
2023-02-06T23:49:02.780Z,-9.20
2023-02-06T23:51:32.941Z,-9.20
2023-02-06T23:54:01.084Z,-9.20
2023-02-06T23:56:30.905Z,-9.30
2023-02-06T23:59:00.149Z,-9.40
